sensor_id;sensor_type;location;lat;lon;timestamp;P1;durP1;ratioP1;P2;durP2;ratioP2
9034;SDS011;4552;43.422;24.592;2024-01-16T00:01:03;11.33;;;7.97;;
9034;SDS011;4552;43.422;24.592;2024-01-16T00:03:31;10.77;;;7.73;;
9034;SDS011;4552;43.422;24.592;2024-01-16T00:12:58;7.07;;;5.80;;
9034;SDS011;4552;43.422;24.592;2024-01-16T00:15:25;8.47;;;4.77;;
9034;SDS011;4552;43.422;24.592;2024-01-16T00:17:59;8.80;;;4.77;;
9034;SDS011;4552;43.422;24.592;2024-01-16T00:20:26;6.27;;;4.00;;
9034;SDS011;4552;43.422;24.592;2024-01-16T00:33:03;20.27;;;11.70;;
9034;SDS011;4552;43.422;24.592;2024-01-16T00:35:30;19.77;;;12.23;;
9034;SDS011;4552;43.422;24.592;2024-01-16T00:41:19;19.63;;;11.53;;
9034;SDS011;4552;43.422;24.592;2024-01-16T00:43:46;23.27;;;11.30;;
9034;SDS011;4552;43.422;24.592;2024-01-16T00:46:27;18.33;;;10.23;;
9034;SDS011;4552;43.422;24.592;2024-01-16T00:48:57;16.33;;;9.50;;
9034;SDS011;4552;43.422;24.592;2024-01-16T00:51:43;15.00;;;9.50;;
9034;SDS011;4552;43.422;24.592;2024-01-16T00:54:10;14.70;;;8.40;;
9034;SDS011;4552;43.422;24.592;2024-01-16T00:56:37;15.33;;;8.27;;
9034;SDS011;4552;43.422;24.592;2024-01-16T00:59:04;14.07;;;9.07;;
9034;SDS011;4552;43.422;24.592;2024-01-16T01:01:31;15.33;;;9.43;;
9034;SDS011;4552;43.422;24.592;2024-01-16T01:03:59;15.17;;;9.20;;
9034;SDS011;4552;43.422;24.592;2024-01-16T01:06:31;19.10;;;10.53;;
9034;SDS011;4552;43.422;24.592;2024-01-16T01:08:58;14.50;;;9.37;;
9034;SDS011;4552;43.422;24.592;2024-01-16T01:11:43;16.83;;;10.17;;
9034;SDS011;4552;43.422;24.592;2024-01-16T01:14:10;15.47;;;10.80;;
9034;SDS011;4552;43.422;24.592;2024-01-16T01:16:37;15.40;;;9.47;;
9034;SDS011;4552;43.422;24.592;2024-01-16T01:19:06;22.07;;;11.30;;
9034;SDS011;4552;43.422;24.592;2024-01-16T01:21:33;19.67;;;10.13;;
9034;SDS011;4552;43.422;24.592;2024-01-16T01:24:02;17.70;;;9.17;;
9034;SDS011;4552;43.422;24.592;2024-01-16T01:26:29;17.13;;;10.63;;
9034;SDS011;4552;43.422;24.592;2024-01-16T01:28:57;23.40;;;11.40;;
9034;SDS011;4552;43.422;24.592;2024-01-16T01:31:29;19.50;;;12.23;;
9034;SDS011;4552;43.422;24.592;2024-01-16T01:33:56;21.10;;;11.73;;
9034;SDS011;4552;43.422;24.592;2024-01-16T01:43:23;27.27;;;14.83;;
9034;SDS011;4552;43.422;24.592;2024-01-16T01:45:56;26.83;;;14.00;;
9034;SDS011;4552;43.422;24.592;2024-01-16T01:48:34;30.23;;;15.50;;
9034;SDS011;4552;43.422;24.592;2024-01-16T01:51:02;33.60;;;17.00;;
9034;SDS011;4552;43.422;24.592;2024-01-16T01:56:15;28.27;;;15.33;;
9034;SDS011;4552;43.422;24.592;2024-01-16T01:58:46;33.23;;;16.53;;
9034;SDS011;4552;43.422;24.592;2024-01-16T02:01:14;28.70;;;17.10;;
9034;SDS011;4552;43.422;24.592;2024-01-16T02:03:44;29.77;;;17.00;;
9034;SDS011;4552;43.422;24.592;2024-01-16T02:06:32;31.50;;;17.97;;
9034;SDS011;4552;43.422;24.592;2024-01-16T02:08:59;31.03;;;17.90;;
9034;SDS011;4552;43.422;24.592;2024-01-16T02:11:27;28.47;;;17.67;;
9034;SDS011;4552;43.422;24.592;2024-01-16T02:13:55;35.50;;;17.67;;
9034;SDS011;4552;43.422;24.592;2024-01-16T02:16:23;32.07;;;18.33;;
9034;SDS011;4552;43.422;24.592;2024-01-16T02:18:50;35.13;;;18.50;;
9034;SDS011;4552;43.422;24.592;2024-01-16T02:31:25;31.67;;;19.33;;
9034;SDS011;4552;43.422;24.592;2024-01-16T02:33:51;31.03;;;18.17;;
9034;SDS011;4552;43.422;24.592;2024-01-16T02:51:07;30.37;;;18.03;;
9034;SDS011;4552;43.422;24.592;2024-01-16T02:53:35;28.20;;;17.37;;
9034;SDS011;4552;43.422;24.592;2024-01-16T02:56:02;28.07;;;16.17;;
9034;SDS011;4552;43.422;24.592;2024-01-16T02:58:37;32.83;;;17.43;;
9034;SDS011;4552;43.422;24.592;2024-01-16T03:01:06;35.97;;;18.13;;
9034;SDS011;4552;43.422;24.592;2024-01-16T03:03:33;26.93;;;14.87;;
9034;SDS011;4552;43.422;24.592;2024-01-16T03:06:00;32.67;;;18.80;;
9034;SDS011;4552;43.422;24.592;2024-01-16T03:11:50;27.53;;;17.67;;
9034;SDS011;4552;43.422;24.592;2024-01-16T03:14:17;38.07;;;18.50;;
9034;SDS011;4552;43.422;24.592;2024-01-16T03:16:44;31.23;;;16.83;;
9034;SDS011;4552;43.422;24.592;2024-01-16T03:19:11;32.33;;;18.00;;
9034;SDS011;4552;43.422;24.592;2024-01-16T03:34:36;29.77;;;16.20;;
9034;SDS011;4552;43.422;24.592;2024-01-16T03:37:03;29.73;;;16.80;;
9034;SDS011;4552;43.422;24.592;2024-01-16T03:39:31;28.67;;;15.10;;
9034;SDS011;4552;43.422;24.592;2024-01-16T03:42:12;19.73;;;12.93;;
9034;SDS011;4552;43.422;24.592;2024-01-16T03:44:39;30.50;;;15.53;;
9034;SDS011;4552;43.422;24.592;2024-01-16T03:47:06;22.37;;;13.23;;
9034;SDS011;4552;43.422;24.592;2024-01-16T03:49:35;14.63;;;9.73;;
9034;SDS011;4552;43.422;24.592;2024-01-16T03:52:02;17.47;;;11.20;;
9034;SDS011;4552;43.422;24.592;2024-01-16T03:54:29;23.37;;;11.73;;
9034;SDS011;4552;43.422;24.592;2024-01-16T03:57:00;16.37;;;9.63;;
9034;SDS011;4552;43.422;24.592;2024-01-16T03:59:27;19.63;;;11.17;;
9034;SDS011;4552;43.422;24.592;2024-01-16T04:01:54;24.43;;;13.17;;
9034;SDS011;4552;43.422;24.592;2024-01-16T04:04:21;20.43;;;12.17;;
9034;SDS011;4552;43.422;24.592;2024-01-16T04:13:32;9.40;;;6.63;;
9034;SDS011;4552;43.422;24.592;2024-01-16T04:16:00;18.57;;;7.63;;
9034;SDS011;4552;43.422;24.592;2024-01-16T04:18:29;13.33;;;6.77;;
9034;SDS011;4552;43.422;24.592;2024-01-16T04:21:18;12.63;;;7.53;;
9034;SDS011;4552;43.422;24.592;2024-01-16T04:30:33;9.93;;;5.53;;
9034;SDS011;4552;43.422;24.592;2024-01-16T04:33:00;11.23;;;7.17;;
9034;SDS011;4552;43.422;24.592;2024-01-16T04:35:29;9.67;;;6.10;;
9034;SDS011;4552;43.422;24.592;2024-01-16T04:58:07;9.37;;;4.33;;
9034;SDS011;4552;43.422;24.592;2024-01-16T05:00:40;7.77;;;4.63;;
9034;SDS011;4552;43.422;24.592;2024-01-16T05:03:07;6.90;;;4.63;;
9034;SDS011;4552;43.422;24.592;2024-01-16T05:05:44;5.20;;;3.63;;
9034;SDS011;4552;43.422;24.592;2024-01-16T05:15:21;4.87;;;3.50;;
9034;SDS011;4552;43.422;24.592;2024-01-16T05:17:48;5.37;;;3.63;;
9034;SDS011;4552;43.422;24.592;2024-01-16T05:20:18;6.60;;;3.23;;
9034;SDS011;4552;43.422;24.592;2024-01-16T05:42:58;3.97;;;2.37;;
9034;SDS011;4552;43.422;24.592;2024-01-16T05:45:25;3.40;;;3.10;;
9034;SDS011;4552;43.422;24.592;2024-01-16T05:47:52;4.77;;;2.80;;
9034;SDS011;4552;43.422;24.592;2024-01-16T05:50:19;2.47;;;2.20;;
9034;SDS011;4552;43.422;24.592;2024-01-16T05:59:46;3.53;;;2.13;;
9034;SDS011;4552;43.422;24.592;2024-01-16T06:02:14;2.30;;;2.10;;
9034;SDS011;4552;43.422;24.592;2024-01-16T06:04:44;2.03;;;1.90;;
9034;SDS011;4552;43.422;24.592;2024-01-16T06:07:11;1.90;;;1.80;;
9034;SDS011;4552;43.422;24.592;2024-01-16T06:09:38;2.07;;;1.77;;
9034;SDS011;4552;43.422;24.592;2024-01-16T06:12:19;2.30;;;1.87;;
9034;SDS011;4552;43.422;24.592;2024-01-16T06:14:50;1.63;;;1.53;;
9034;SDS011;4552;43.422;24.592;2024-01-16T06:17:25;1.50;;;1.40;;
9034;SDS011;4552;43.422;24.592;2024-01-16T06:19:53;1.70;;;1.60;;
9034;SDS011;4552;43.422;24.592;2024-01-16T06:32:41;1.53;;;1.43;;
9034;SDS011;4552;43.422;24.592;2024-01-16T06:35:08;1.37;;;1.27;;
9034;SDS011;4552;43.422;24.592;2024-01-16T06:47:41;1.10;;;1.10;;
9034;SDS011;4552;43.422;24.592;2024-01-16T06:50:09;1.20;;;1.10;;
9034;SDS011;4552;43.422;24.592;2024-01-16T06:52:36;1.10;;;1.10;;
9034;SDS011;4552;43.422;24.592;2024-01-16T06:55:03;1.40;;;1.30;;
9034;SDS011;4552;43.422;24.592;2024-01-16T06:57:30;1.57;;;1.47;;
9034;SDS011;4552;43.422;24.592;2024-01-16T07:00:04;1.23;;;1.17;;
9034;SDS011;4552;43.422;24.592;2024-01-16T07:02:35;1.30;;;1.20;;
9034;SDS011;4552;43.422;24.592;2024-01-16T07:05:03;1.20;;;1.20;;
9034;SDS011;4552;43.422;24.592;2024-01-16T07:17:36;1.23;;;1.17;;
9034;SDS011;4552;43.422;24.592;2024-01-16T07:20:15;1.03;;;1.03;;
9034;SDS011;4552;43.422;24.592;2024-01-16T07:49:26;1.60;;;1.50;;
9034;SDS011;4552;43.422;24.592;2024-01-16T07:51:53;1.43;;;1.33;;
9034;SDS011;4552;43.422;24.592;2024-01-16T07:54:20;1.60;;;1.50;;
9034;SDS011;4552;43.422;24.592;2024-01-16T07:56:47;1.60;;;1.50;;
9034;SDS011;4552;43.422;24.592;2024-01-16T07:59:14;1.97;;;1.87;;
9034;SDS011;4552;43.422;24.592;2024-01-16T08:01:41;1.60;;;1.50;;
9034;SDS011;4552;43.422;24.592;2024-01-16T08:04:08;1.67;;;1.57;;
9034;SDS011;4552;43.422;24.592;2024-01-16T08:06:36;2.77;;;1.60;;
9034;SDS011;4552;43.422;24.592;2024-01-16T08:29:15;1.60;;;1.50;;
9034;SDS011;4552;43.422;24.592;2024-01-16T08:31:42;1.70;;;1.60;;
9034;SDS011;4552;43.422;24.592;2024-01-16T08:34:09;2.17;;;1.63;;
9034;SDS011;4552;43.422;24.592;2024-01-16T08:36:36;1.67;;;1.57;;
9034;SDS011;4552;43.422;24.592;2024-01-16T08:59:10;1.70;;;1.60;;
9034;SDS011;4552;43.422;24.592;2024-01-16T09:01:37;1.83;;;1.73;;
9034;SDS011;4552;43.422;24.592;2024-01-16T09:04:19;2.10;;;2.00;;
9034;SDS011;4552;43.422;24.592;2024-01-16T09:06:46;2.10;;;1.90;;
9034;SDS011;4552;43.422;24.592;2024-01-16T09:09:13;1.63;;;1.53;;
9034;SDS011;4552;43.422;24.592;2024-01-16T09:11:41;2.07;;;1.80;;
9034;SDS011;4552;43.422;24.592;2024-01-16T09:16:58;1.80;;;1.70;;
9034;SDS011;4552;43.422;24.592;2024-01-16T09:19:27;1.97;;;1.57;;
9034;SDS011;4552;43.422;24.592;2024-01-16T10:05:33;1.80;;;1.70;;
9034;SDS011;4552;43.422;24.592;2024-01-16T10:08:01;2.27;;;2.00;;
9034;SDS011;4552;43.422;24.592;2024-01-16T10:10:46;2.53;;;2.07;;
9034;SDS011;4552;43.422;24.592;2024-01-16T10:13:13;2.57;;;1.83;;
9034;SDS011;4552;43.422;24.592;2024-01-16T10:45:52;2.17;;;1.97;;
9034;SDS011;4552;43.422;24.592;2024-01-16T10:48:35;2.23;;;1.70;;
9034;SDS011;4552;43.422;24.592;2024-01-16T10:51:02;2.00;;;1.57;;
9034;SDS011;4552;43.422;24.592;2024-01-16T10:53:32;2.03;;;1.83;;
9034;SDS011;4552;43.422;24.592;2024-01-16T10:56:01;2.13;;;1.93;;
9034;SDS011;4552;43.422;24.592;2024-01-16T10:58:38;2.00;;;1.80;;
9034;SDS011;4552;43.422;24.592;2024-01-16T11:11:12;1.60;;;1.50;;
9034;SDS011;4552;43.422;24.592;2024-01-16T11:13:41;6.07;;;2.50;;
9034;SDS011;4552;43.422;24.592;2024-01-16T11:22:53;1.87;;;1.77;;
9034;SDS011;4552;43.422;24.592;2024-01-16T11:25:30;1.90;;;1.80;;
9034;SDS011;4552;43.422;24.592;2024-01-16T11:28:07;2.90;;;2.40;;
9034;SDS011;4552;43.422;24.592;2024-01-16T11:30:50;2.30;;;2.10;;
9034;SDS011;4552;43.422;24.592;2024-01-16T11:39:24;3.90;;;2.30;;
9034;SDS011;4552;43.422;24.592;2024-01-16T11:41:52;2.70;;;2.03;;
9034;SDS011;4552;43.422;24.592;2024-01-16T11:44:40;2.20;;;2.00;;
9034;SDS011;4552;43.422;24.592;2024-01-16T11:47:20;2.30;;;2.10;;
9034;SDS011;4552;43.422;24.592;2024-01-16T11:49:49;3.03;;;2.10;;
9034;SDS011;4552;43.422;24.592;2024-01-16T11:52:38;2.80;;;2.40;;
9034;SDS011;4552;43.422;24.592;2024-01-16T11:58:21;2.60;;;2.40;;
9034;SDS011;4552;43.422;24.592;2024-01-16T12:04:54;2.73;;;2.30;;
9034;SDS011;4552;43.422;24.592;2024-01-16T12:07:22;2.53;;;2.33;;
9034;SDS011;4552;43.422;24.592;2024-01-16T12:09:49;3.17;;;2.20;;
9034;SDS011;4552;43.422;24.592;2024-01-16T12:12:31;3.43;;;2.50;;
9034;SDS011;4552;43.422;24.592;2024-01-16T12:15:02;3.33;;;2.10;;
9034;SDS011;4552;43.422;24.592;2024-01-16T12:44:35;2.77;;;2.07;;
9034;SDS011;4552;43.422;24.592;2024-01-16T12:53:45;2.83;;;1.87;;
9034;SDS011;4552;43.422;24.592;2024-01-16T12:56:12;1.70;;;1.60;;
9034;SDS011;4552;43.422;24.592;2024-01-16T12:58:45;1.67;;;1.57;;
9034;SDS011;4552;43.422;24.592;2024-01-16T13:14:42;1.70;;;1.60;;
9034;SDS011;4552;43.422;24.592;2024-01-16T13:57:32;3.13;;;2.00;;
9034;SDS011;4552;43.422;24.592;2024-01-16T14:00:02;2.33;;;2.10;;
9034;SDS011;4552;43.422;24.592;2024-01-16T14:38:59;5.40;;;2.20;;
9034;SDS011;4552;43.422;24.592;2024-01-16T14:44:14;3.07;;;2.37;;
9034;SDS011;4552;43.422;24.592;2024-01-16T14:50:24;3.67;;;2.83;;
9034;SDS011;4552;43.422;24.592;2024-01-16T14:52:52;3.13;;;2.50;;
9034;SDS011;4552;43.422;24.592;2024-01-16T14:55:26;2.43;;;2.03;;
9034;SDS011;4552;43.422;24.592;2024-01-16T14:57:55;12.97;;;6.73;;
9034;SDS011;4552;43.422;24.592;2024-01-16T15:00:25;4.67;;;2.60;;
9034;SDS011;4552;43.422;24.592;2024-01-16T15:03:06;3.50;;;2.47;;
9034;SDS011;4552;43.422;24.592;2024-01-16T15:05:33;2.57;;;2.37;;
9034;SDS011;4552;43.422;24.592;2024-01-16T15:08:02;2.57;;;2.33;;
9034;SDS011;4552;43.422;24.592;2024-01-16T15:10:31;3.07;;;2.63;;
9034;SDS011;4552;43.422;24.592;2024-01-16T15:12:59;3.13;;;2.43;;
9034;SDS011;4552;43.422;24.592;2024-01-16T15:15:27;3.10;;;2.33;;
9034;SDS011;4552;43.422;24.592;2024-01-16T15:28:05;3.77;;;2.63;;
9034;SDS011;4552;43.422;24.592;2024-01-16T15:30:32;3.60;;;2.50;;
9034;SDS011;4552;43.422;24.592;2024-01-16T15:43:09;2.93;;;2.73;;
9034;SDS011;4552;43.422;24.592;2024-01-16T15:45:54;4.07;;;2.60;;
9034;SDS011;4552;43.422;24.592;2024-01-16T15:55:06;3.97;;;3.00;;
9034;SDS011;4552;43.422;24.592;2024-01-16T15:57:34;3.30;;;3.00;;
9034;SDS011;4552;43.422;24.592;2024-01-16T16:00:03;3.33;;;2.67;;
9034;SDS011;4552;43.422;24.592;2024-01-16T16:36:22;5.20;;;3.97;;
9034;SDS011;4552;43.422;24.592;2024-01-16T16:38:58;10.03;;;3.70;;
9034;SDS011;4552;43.422;24.592;2024-01-16T16:41:39;4.77;;;3.47;;
9034;SDS011;4552;43.422;24.592;2024-01-16T16:44:06;5.77;;;3.40;;
9034;SDS011;4552;43.422;24.592;2024-01-16T16:49:55;4.20;;;3.67;;
9034;SDS011;4552;43.422;24.592;2024-01-16T16:55:07;4.47;;;3.40;;
9034;SDS011;4552;43.422;24.592;2024-01-16T16:57:34;5.93;;;4.37;;
9034;SDS011;4552;43.422;24.592;2024-01-16T17:00:01;5.63;;;3.93;;
9034;SDS011;4552;43.422;24.592;2024-01-16T17:15:57;4.53;;;3.67;;
9034;SDS011;4552;43.422;24.592;2024-01-16T17:18:27;6.23;;;4.60;;
9034;SDS011;4552;43.422;24.592;2024-01-16T17:21:06;5.22;;;4.05;;
9034;SDS011;4552;43.422;24.592;2024-01-16T17:23:33;10.77;;;6.20;;
9034;SDS011;4552;43.422;24.592;2024-01-16T17:26:04;7.20;;;4.87;;
9034;SDS011;4552;43.422;24.592;2024-01-16T17:28:38;7.50;;;4.83;;
9034;SDS011;4552;43.422;24.592;2024-01-16T17:31:07;11.60;;;5.43;;
9034;SDS011;4552;43.422;24.592;2024-01-16T18:10:36;5.67;;;4.63;;
9034;SDS011;4552;43.422;24.592;2024-01-16T18:13:03;7.50;;;5.00;;
9034;SDS011;4552;43.422;24.592;2024-01-16T18:15:44;6.20;;;3.87;;
9034;SDS011;4552;43.422;24.592;2024-01-16T18:38:23;4.90;;;4.20;;
9034;SDS011;4552;43.422;24.592;2024-01-16T18:40:50;4.43;;;3.70;;
9034;SDS011;4552;43.422;24.592;2024-01-16T18:43:31;7.20;;;4.50;;
9034;SDS011;4552;43.422;24.592;2024-01-16T18:46:06;7.67;;;3.97;;
9034;SDS011;4552;43.422;24.592;2024-01-16T19:15:42;18.73;;;10.67;;
9034;SDS011;4552;43.422;24.592;2024-01-16T19:18:10;18.60;;;10.97;;
9034;SDS011;4552;43.422;24.592;2024-01-16T19:20:40;20.77;;;10.80;;
9034;SDS011;4552;43.422;24.592;2024-01-16T19:23:22;20.87;;;10.97;;
9034;SDS011;4552;43.422;24.592;2024-01-16T19:25:59;25.57;;;12.20;;
9034;SDS011;4552;43.422;24.592;2024-01-16T19:28:29;19.37;;;11.23;;
9034;SDS011;4552;43.422;24.592;2024-01-16T19:30:59;16.23;;;9.90;;
9034;SDS011;4552;43.422;24.592;2024-01-16T19:46:36;21.20;;;10.83;;
9034;SDS011;4552;43.422;24.592;2024-01-16T19:49:17;19.07;;;11.90;;
9034;SDS011;4552;43.422;24.592;2024-01-16T19:51:46;16.53;;;9.67;;
9034;SDS011;4552;43.422;24.592;2024-01-16T19:54:14;20.53;;;11.13;;
9034;SDS011;4552;43.422;24.592;2024-01-16T19:56:41;15.30;;;9.87;;
9034;SDS011;4552;43.422;24.592;2024-01-16T19:59:18;14.80;;;9.33;;
9034;SDS011;4552;43.422;24.592;2024-01-16T20:19:06;20.10;;;10.10;;
9034;SDS011;4552;43.422;24.592;2024-01-16T20:21:34;17.70;;;9.53;;
9034;SDS011;4552;43.422;24.592;2024-01-16T20:24:25;21.33;;;11.27;;
9034;SDS011;4552;43.422;24.592;2024-01-16T20:26:54;19.07;;;9.33;;
9034;SDS011;4552;43.422;24.592;2024-01-16T20:32:16;17.10;;;7.23;;
9034;SDS011;4552;43.422;24.592;2024-01-16T20:34:45;14.60;;;8.60;;
9034;SDS011;4552;43.422;24.592;2024-01-16T20:37:13;16.17;;;8.67;;
9034;SDS011;4552;43.422;24.592;2024-01-16T20:39:40;11.57;;;7.90;;
9034;SDS011;4552;43.422;24.592;2024-01-16T20:42:22;15.83;;;9.20;;
9034;SDS011;4552;43.422;24.592;2024-01-16T20:44:49;19.43;;;11.70;;
9034;SDS011;4552;43.422;24.592;2024-01-16T20:50:47;27.20;;;15.18;;
9034;SDS011;4552;43.422;24.592;2024-01-16T20:53:13;25.40;;;13.13;;
9034;SDS011;4552;43.422;24.592;2024-01-16T20:55:43;18.97;;;10.93;;
9034;SDS011;4552;43.422;24.592;2024-01-16T21:01:07;17.27;;;11.03;;
9034;SDS011;4552;43.422;24.592;2024-01-16T21:06:57;18.30;;;10.80;;
9034;SDS011;4552;43.422;24.592;2024-01-16T21:09:26;18.53;;;11.37;;
9034;SDS011;4552;43.422;24.592;2024-01-16T21:11:54;13.13;;;9.60;;
9034;SDS011;4552;43.422;24.592;2024-01-16T21:14:35;15.10;;;9.83;;
9034;SDS011;4552;43.422;24.592;2024-01-16T21:27:10;20.10;;;10.90;;
9034;SDS011;4552;43.422;24.592;2024-01-16T21:29:57;15.23;;;9.47;;
9034;SDS011;4552;43.422;24.592;2024-01-16T21:32:31;15.07;;;9.57;;
9034;SDS011;4552;43.422;24.592;2024-01-16T21:35:04;22.47;;;11.20;;
9034;SDS011;4552;43.422;24.592;2024-01-16T21:37:34;18.30;;;10.57;;
9034;SDS011;4552;43.422;24.592;2024-01-16T21:42:39;17.83;;;11.30;;
9034;SDS011;4552;43.422;24.592;2024-01-16T21:45:08;17.37;;;9.67;;
9034;SDS011;4552;43.422;24.592;2024-01-16T21:47:37;18.53;;;10.73;;
9034;SDS011;4552;43.422;24.592;2024-01-16T21:50:05;18.07;;;10.10;;
9034;SDS011;4552;43.422;24.592;2024-01-16T21:52:32;16.77;;;11.00;;
9034;SDS011;4552;43.422;24.592;2024-01-16T21:54:59;21.27;;;10.77;;
9034;SDS011;4552;43.422;24.592;2024-01-16T21:57:53;17.63;;;9.50;;
9034;SDS011;4552;43.422;24.592;2024-01-16T22:00:21;20.20;;;12.13;;
9034;SDS011;4552;43.422;24.592;2024-01-16T22:02:50;17.77;;;10.07;;
9034;SDS011;4552;43.422;24.592;2024-01-16T22:05:22;18.93;;;10.33;;
9034;SDS011;4552;43.422;24.592;2024-01-16T22:07:50;16.03;;;10.37;;
9034;SDS011;4552;43.422;24.592;2024-01-16T22:10:17;18.83;;;10.00;;
9034;SDS011;4552;43.422;24.592;2024-01-16T22:12:45;23.00;;;11.90;;
9034;SDS011;4552;43.422;24.592;2024-01-16T22:15:19;26.00;;;12.10;;
9034;SDS011;4552;43.422;24.592;2024-01-16T22:17:59;21.80;;;10.53;;
9034;SDS011;4552;43.422;24.592;2024-01-16T22:20:30;17.97;;;10.67;;
9034;SDS011;4552;43.422;24.592;2024-01-16T22:22:58;18.33;;;10.70;;
9034;SDS011;4552;43.422;24.592;2024-01-16T22:25:25;16.73;;;10.03;;
9034;SDS011;4552;43.422;24.592;2024-01-16T22:28:13;17.97;;;10.20;;
9034;SDS011;4552;43.422;24.592;2024-01-16T22:31:01;21.33;;;10.30;;
9034;SDS011;4552;43.422;24.592;2024-01-16T22:53:39;9.63;;;5.80;;
9034;SDS011;4552;43.422;24.592;2024-01-16T22:56:09;10.10;;;6.60;;
9034;SDS011;4552;43.422;24.592;2024-01-16T22:58:35;9.00;;;5.90;;
9034;SDS011;4552;43.422;24.592;2024-01-16T23:01:23;9.13;;;5.90;;
9034;SDS011;4552;43.422;24.592;2024-01-16T23:03:50;8.17;;;5.80;;
9034;SDS011;4552;43.422;24.592;2024-01-16T23:06:21;9.77;;;5.77;;
9034;SDS011;4552;43.422;24.592;2024-01-16T23:08:52;8.70;;;5.60;;
9034;SDS011;4552;43.422;24.592;2024-01-16T23:11:20;7.03;;;5.20;;
9034;SDS011;4552;43.422;24.592;2024-01-16T23:13:50;9.40;;;5.47;;
9034;SDS011;4552;43.422;24.592;2024-01-16T23:16:17;11.37;;;6.17;;
9034;SDS011;4552;43.422;24.592;2024-01-16T23:32:12;9.77;;;6.73;;
9034;SDS011;4552;43.422;24.592;2024-01-16T23:34:40;10.03;;;6.67;;
